To NAV CANADA Home Page Login to a new session Search on AWWS site Feedback and Comments Disclaimer Vers la page française équivalente Tips FAQ What's new on the site To the Forecasts and Observations / NOTAM section To "File a Flight Plan" website Publications and other links Update of the User's profile FIC Telephone Numbers My Weather Data Folder Route Weather Data Regional Weather Data Local Weather Data To the Forecasts and Observations / NOTAM section
Request Generated 07/27/2016 at 05:19:44 UTC . Weather information available at that time is displayed.

METAR/TAF

LOURDES-DE-BLANC-SABLON/QC    

METAR CYBX 270500Z 08019KT 15SM -RA OVC040 11/09 A2988 RMK SC8
SLP122=
METAR CYBX 270400Z 07015G20KT 15SM -RA OVC040 11/10 A2990 RMK SC8
SLP127=
METAR CYBX 270300Z 07018G23KT 15SM -RA OVC040 12/10 A2990 RMK SC8
SLP128=

TAF AMD CYBX 270510Z 2705/2714 08015KT P6SM -RA OVC040 TEMPO
2705/2709 5SM -RA BR OVC020 PROB30 2705/2709 11/2SM BR OVC004
FM270900 08015KT 4SM -SHRA BR OVC008 PROB30 2709/2714 11/2SM BR
OVC004
RMK NXT FCST BY 270800Z=
Your time UTC time
Weather data provided by Environment Canada and NAV CANADA